sensor_id;sensor_type;location;lat;lon;timestamp;noise_LAeq;noise_LA_min;noise_LA_max;noise_LA01;noise_LA95
73206;Laerm;61415;55.702;37.460;2023-04-24T00:00:00;60.32;55.58;64.68;;
73206;Laerm;61415;55.702;37.460;2023-04-24T00:00:31;61.79;56.99;67.58;;
73206;Laerm;61415;55.702;37.460;2023-04-24T00:01:02;64.53;59.72;68.45;;
73206;Laerm;61415;55.702;37.460;2023-04-24T00:01:33;61.67;58.60;75.85;;
73206;Laerm;61415;55.702;37.460;2023-04-24T00:02:04;63.81;55.85;72.84;;
73206;Laerm;61415;55.702;37.460;2023-04-24T00:02:37;62.08;58.16;64.87;;
73206;Laerm;61415;55.702;37.460;2023-04-24T00:03:09;60.06;55.79;65.56;;
73206;Laerm;61415;55.702;37.460;2023-04-24T00:03:39;62.37;57.51;66.01;;
73206;Laerm;61415;55.702;37.460;2023-04-24T00:04:10;61.55;58.05;65.03;;
73206;Laerm;61415;55.702;37.460;2023-04-24T00:04:41;66.04;58.83;71.49;;
73206;Laerm;61415;55.702;37.460;2023-04-24T00:05:15;60.70;56.50;70.37;;
73206;Laerm;61415;55.702;37.460;2023-04-24T00:05:46;59.75;56.60;63.71;;
73206;Laerm;61415;55.702;37.460;2023-04-24T00:06:17;62.58;57.90;67.87;;
73206;Laerm;61415;55.702;37.460;2023-04-24T00:06:48;63.15;56.74;67.90;;
73206;Laerm;61415;55.702;37.460;2023-04-24T00:07:24;61.84;56.04;67.22;;
73206;Laerm;61415;55.702;37.460;2023-04-24T00:07:55;62.99;55.95;69.38;;
73206;Laerm;61415;55.702;37.460;2023-04-24T00:08:26;67.58;61.69;73.58;;
73206;Laerm;61415;55.702;37.460;2023-04-24T00:08:56;62.46;59.07;66.31;;
73206;Laerm;61415;55.702;37.460;2023-04-24T00:09:27;59.82;55.34;65.56;;
73206;Laerm;61415;55.702;37.460;2023-04-24T00:09:58;60.18;55.61;64.74;;
73206;Laerm;61415;55.702;37.460;2023-04-24T00:10:29;62.55;56.21;67.57;;
73206;Laerm;61415;55.702;37.460;2023-04-24T00:11:00;62.76;58.22;66.67;;
73206;Laerm;61415;55.702;37.460;2023-04-24T00:11:31;62.05;57.57;65.90;;
73206;Laerm;61415;55.702;37.460;2023-04-24T00:12:02;66.11;59.25;71.00;;
73206;Laerm;61415;55.702;37.460;2023-04-24T00:12:35;62.92;58.46;67.89;;
73206;Laerm;61415;55.702;37.460;2023-04-24T00:13:06;63.45;60.12;66.77;;
73206;Laerm;61415;55.702;37.460;2023-04-24T00:13:37;66.07;59.78;74.08;;
73206;Laerm;61415;55.702;37.460;2023-04-24T00:14:08;63.00;57.31;68.36;;
73206;Laerm;61415;55.702;37.460;2023-04-24T00:14:38;61.89;58.81;64.85;;
73206;Laerm;61415;55.702;37.460;2023-04-24T00:15:09;65.02;60.03;69.81;;
73206;Laerm;61415;55.702;37.460;2023-04-24T00:15:40;62.61;58.78;65.92;;
73206;Laerm;61415;55.702;37.460;2023-04-24T00:16:11;58.49;54.40;63.57;;
73206;Laerm;61415;55.702;37.460;2023-04-24T00:16:42;60.95;56.36;65.86;;
73206;Laerm;61415;55.702;37.460;2023-04-24T00:17:13;59.82;57.01;66.26;;
73206;Laerm;61415;55.702;37.460;2023-04-24T00:17:43;60.66;57.20;63.57;;
73206;Laerm;61415;55.702;37.460;2023-04-24T00:18:14;61.55;57.54;65.51;;
73206;Laerm;61415;55.702;37.460;2023-04-24T00:18:45;65.49;59.41;68.68;;
73206;Laerm;61415;55.702;37.460;2023-04-24T00:19:18;58.29;54.65;61.92;;
73206;Laerm;61415;55.702;37.460;2023-04-24T00:19:51;61.53;57.85;65.22;;
73206;Laerm;61415;55.702;37.460;2023-04-24T00:20:28;60.97;56.18;66.78;;
73206;Laerm;61415;55.702;37.460;2023-04-24T00:21:06;59.80;56.84;64.40;;
73206;Laerm;61415;55.702;37.460;2023-04-24T00:21:36;61.02;57.30;64.65;;
73206;Laerm;61415;55.702;37.460;2023-04-24T00:22:08;64.02;58.01;71.47;;
73206;Laerm;61415;55.702;37.460;2023-04-24T00:22:38;61.04;57.53;63.82;;
73206;Laerm;61415;55.702;37.460;2023-04-24T00:23:10;61.58;57.22;69.12;;
73206;Laerm;61415;55.702;37.460;2023-04-24T00:23:41;63.14;58.78;67.78;;
73206;Laerm;61415;55.702;37.460;2023-04-24T00:24:12;63.95;57.23;71.20;;
73206;Laerm;61415;55.702;37.460;2023-04-24T00:24:43;62.12;57.80;66.35;;
73206;Laerm;61415;55.702;37.460;2023-04-24T00:25:13;65.25;61.23;72.50;;
73206;Laerm;61415;55.702;37.460;2023-04-24T00:25:44;64.74;58.03;70.15;;
73206;Laerm;61415;55.702;37.460;2023-04-24T00:26:15;61.98;58.88;65.66;;
73206;Laerm;61415;55.702;37.460;2023-04-24T00:26:46;61.38;58.00;65.41;;
73206;Laerm;61415;55.702;37.460;2023-04-24T00:27:17;61.61;56.15;64.95;;
73206;Laerm;61415;55.702;37.460;2023-04-24T00:27:47;62.47;56.49;66.33;;
73206;Laerm;61415;55.702;37.460;2023-04-24T00:28:18;61.70;57.66;69.17;;
73206;Laerm;61415;55.702;37.460;2023-04-24T00:28:49;62.71;58.02;68.10;;
73206;Laerm;61415;55.702;37.460;2023-04-24T00:29:20;61.81;57.33;66.54;;
73206;Laerm;61415;55.702;37.460;2023-04-24T00:29:51;61.51;58.29;67.67;;
73206;Laerm;61415;55.702;37.460;2023-04-24T00:30:21;64.52;60.98;73.04;;
73206;Laerm;61415;55.702;37.460;2023-04-24T00:30:53;63.42;57.94;69.67;;
73206;Laerm;61415;55.702;37.460;2023-04-24T00:31:24;60.97;57.20;64.52;;
73206;Laerm;61415;55.702;37.460;2023-04-24T00:31:54;60.83;57.51;66.91;;
73206;Laerm;61415;55.702;37.460;2023-04-24T00:32:25;61.81;54.88;67.42;;
73206;Laerm;61415;55.702;37.460;2023-04-24T00:32:56;62.69;58.42;66.87;;
73206;Laerm;61415;55.702;37.460;2023-04-24T00:33:27;59.38;56.80;62.35;;
73206;Laerm;61415;55.702;37.460;2023-04-24T00:33:58;65.89;58.00;70.66;;
73206;Laerm;61415;55.702;37.460;2023-04-24T00:34:29;63.53;59.29;66.97;;
73206;Laerm;61415;55.702;37.460;2023-04-24T00:34:59;60.96;57.63;64.50;;
73206;Laerm;61415;55.702;37.460;2023-04-24T00:35:31;63.02;58.91;66.66;;
73206;Laerm;61415;55.702;37.460;2023-04-24T00:36:01;63.41;60.23;67.20;;
73206;Laerm;61415;55.702;37.460;2023-04-24T00:36:32;62.36;58.06;64.91;;
73206;Laerm;61415;55.702;37.460;2023-04-24T00:37:03;62.55;58.67;68.16;;
73206;Laerm;61415;55.702;37.460;2023-04-24T00:37:34;63.52;58.83;68.77;;
73206;Laerm;61415;55.702;37.460;2023-04-24T00:38:05;64.89;59.93;68.84;;
73206;Laerm;61415;55.702;37.460;2023-04-24T00:38:36;62.03;57.66;65.00;;
73206;Laerm;61415;55.702;37.460;2023-04-24T00:39:06;59.15;56.27;62.35;;
73206;Laerm;61415;55.702;37.460;2023-04-24T00:39:39;61.64;57.61;64.93;;
73206;Laerm;61415;55.702;37.460;2023-04-24T00:40:10;61.54;57.09;67.19;;
73206;Laerm;61415;55.702;37.460;2023-04-24T00:40:41;63.27;59.37;67.07;;
73206;Laerm;61415;55.702;37.460;2023-04-24T00:41:11;61.47;57.38;65.52;;
73206;Laerm;61415;55.702;37.460;2023-04-24T00:41:43;62.22;56.96;66.39;;
73206;Laerm;61415;55.702;37.460;2023-04-24T00:42:14;59.33;55.88;70.13;;
73206;Laerm;61415;55.702;37.460;2023-04-24T00:42:45;63.07;56.51;67.26;;
73206;Laerm;61415;55.702;37.460;2023-04-24T00:43:16;59.61;56.76;64.18;;
73206;Laerm;61415;55.702;37.460;2023-04-24T00:43:47;64.83;58.25;70.35;;
73206;Laerm;61415;55.702;37.460;2023-04-24T00:44:18;60.28;56.33;66.43;;
73206;Laerm;61415;55.702;37.460;2023-04-24T00:44:49;61.74;57.15;65.80;;
73206;Laerm;61415;55.702;37.460;2023-04-24T00:45:20;65.92;60.46;70.24;;
73206;Laerm;61415;55.702;37.460;2023-04-24T00:45:51;64.10;60.61;66.90;;
73206;Laerm;61415;55.702;37.460;2023-04-24T00:46:21;61.94;57.92;65.95;;
73206;Laerm;61415;55.702;37.460;2023-04-24T00:46:52;64.55;59.00;70.19;;
73206;Laerm;61415;55.702;37.460;2023-04-24T00:47:25;64.15;58.12;70.05;;
73206;Laerm;61415;55.702;37.460;2023-04-24T00:47:55;62.51;57.73;68.85;;
73206;Laerm;61415;55.702;37.460;2023-04-24T00:48:27;64.11;57.95;71.58;;
73206;Laerm;61415;55.702;37.460;2023-04-24T00:48:58;59.96;55.55;67.98;;
73206;Laerm;61415;55.702;37.460;2023-04-24T00:49:29;60.14;56.46;64.39;;
73206;Laerm;61415;55.702;37.460;2023-04-24T00:50:03;62.25;58.10;70.39;;
73206;Laerm;61415;55.702;37.460;2023-04-24T00:50:35;60.66;57.00;65.14;;
73206;Laerm;61415;55.702;37.460;2023-04-24T00:51:06;62.41;56.86;65.81;;
73206;Laerm;61415;55.702;37.460;2023-04-24T00:51:37;58.94;54.11;63.22;;
73206;Laerm;61415;55.702;37.460;2023-04-24T00:52:08;59.09;55.33;63.49;;
73206;Laerm;61415;55.702;37.460;2023-04-24T00:52:39;63.36;57.36;68.79;;
73206;Laerm;61415;55.702;37.460;2023-04-24T00:53:11;58.48;56.06;62.05;;
73206;Laerm;61415;55.702;37.460;2023-04-24T00:53:41;58.68;54.93;62.81;;
73206;Laerm;61415;55.702;37.460;2023-04-24T00:54:12;59.11;54.11;62.72;;
73206;Laerm;61415;55.702;37.460;2023-04-24T00:54:44;63.24;59.27;67.95;;
73206;Laerm;61415;55.702;37.460;2023-04-24T00:55:15;60.48;55.83;65.78;;
73206;Laerm;61415;55.702;37.460;2023-04-24T00:55:46;62.54;56.29;67.43;;
73206;Laerm;61415;55.702;37.460;2023-04-24T00:56:17;60.83;55.65;66.33;;
73206;Laerm;61415;55.702;37.460;2023-04-24T00:56:48;62.55;57.98;66.71;;
73206;Laerm;61415;55.702;37.460;2023-04-24T00:57:20;62.71;58.19;65.35;;
73206;Laerm;61415;55.702;37.460;2023-04-24T00:57:51;65.56;61.74;70.46;;
73206;Laerm;61415;55.702;37.460;2023-04-24T00:58:22;62.71;54.72;70.02;;
73206;Laerm;61415;55.702;37.460;2023-04-24T00:58:53;58.51;55.16;70.33;;
73206;Laerm;61415;55.702;37.460;2023-04-24T00:59:24;60.66;56.25;63.78;;
73206;Laerm;61415;55.702;37.460;2023-04-24T00:59:55;59.17;55.29;62.96;;
73206;Laerm;61415;55.702;37.460;2023-04-24T01:00:26;62.89;54.99;72.80;;
73206;Laerm;61415;55.702;37.460;2023-04-24T01:00:57;62.64;58.00;69.38;;
73206;Laerm;61415;55.702;37.460;2023-04-24T01:01:29;59.27;55.17;64.34;;
73206;Laerm;61415;55.702;37.460;2023-04-24T01:02:00;66.14;59.33;73.97;;
73206;Laerm;61415;55.702;37.460;2023-04-24T01:02:31;64.84;59.73;69.41;;
73206;Laerm;61415;55.702;37.460;2023-04-24T01:03:04;62.91;59.10;67.68;;
73206;Laerm;61415;55.702;37.460;2023-04-24T01:03:36;60.32;55.98;63.53;;
73206;Laerm;61415;55.702;37.460;2023-04-24T01:04:07;59.74;55.87;65.49;;
73206;Laerm;61415;55.702;37.460;2023-04-24T01:04:38;63.49;60.05;67.53;;
73206;Laerm;61415;55.702;37.460;2023-04-24T01:05:10;61.00;57.16;64.91;;
73206;Laerm;61415;55.702;37.460;2023-04-24T01:05:42;61.51;57.37;68.99;;
73206;Laerm;61415;55.702;37.460;2023-04-24T01:06:13;64.07;57.67;70.31;;
73206;Laerm;61415;55.702;37.460;2023-04-24T01:06:44;59.56;57.18;61.82;;
73206;Laerm;61415;55.702;37.460;2023-04-24T01:07:17;65.00;58.83;70.88;;
73206;Laerm;61415;55.702;37.460;2023-04-24T01:07:48;62.23;59.32;65.76;;
73206;Laerm;61415;55.702;37.460;2023-04-24T01:08:19;60.62;57.31;64.55;;
73206;Laerm;61415;55.702;37.460;2023-04-24T01:08:50;61.84;56.56;66.96;;
73206;Laerm;61415;55.702;37.460;2023-04-24T01:09:21;59.48;55.53;62.88;;
73206;Laerm;61415;55.702;37.460;2023-04-24T01:09:53;59.54;56.26;64.56;;
73206;Laerm;61415;55.702;37.460;2023-04-24T01:10:24;63.38;57.23;67.90;;
73206;Laerm;61415;55.702;37.460;2023-04-24T01:10:56;60.07;56.17;64.41;;
73206;Laerm;61415;55.702;37.460;2023-04-24T01:11:27;66.01;58.90;73.09;;
73206;Laerm;61415;55.702;37.460;2023-04-24T01:11:59;65.95;60.40;70.71;;
73206;Laerm;61415;55.702;37.460;2023-04-24T01:12:31;62.89;57.10;70.51;;
73206;Laerm;61415;55.702;37.460;2023-04-24T01:13:02;60.16;56.34;64.55;;
73206;Laerm;61415;55.702;37.460;2023-04-24T01:13:34;66.35;57.16;71.36;;
73206;Laerm;61415;55.702;37.460;2023-04-24T01:14:04;60.72;56.03;65.07;;
73206;Laerm;61415;55.702;37.460;2023-04-24T01:14:36;61.47;57.78;69.70;;
73206;Laerm;61415;55.702;37.460;2023-04-24T01:15:07;62.95;59.30;66.82;;
73206;Laerm;61415;55.702;37.460;2023-04-24T01:15:38;62.39;57.41;67.73;;
73206;Laerm;61415;55.702;37.460;2023-04-24T01:16:08;60.43;57.27;64.24;;
73206;Laerm;61415;55.702;37.460;2023-04-24T01:16:39;63.17;59.36;66.28;;
73206;Laerm;61415;55.702;37.460;2023-04-24T01:17:11;64.14;59.68;67.99;;
73206;Laerm;61415;55.702;37.460;2023-04-24T01:17:42;61.01;57.60;66.07;;
73206;Laerm;61415;55.702;37.460;2023-04-24T01:18:13;62.53;59.11;66.34;;
73206;Laerm;61415;55.702;37.460;2023-04-24T01:18:44;62.07;58.18;65.47;;
73206;Laerm;61415;55.702;37.460;2023-04-24T01:19:16;62.28;58.53;66.48;;
73206;Laerm;61415;55.702;37.460;2023-04-24T01:19:48;64.73;60.54;67.87;;
73206;Laerm;61415;55.702;37.460;2023-04-24T01:20:19;61.13;57.01;65.38;;
73206;Laerm;61415;55.702;37.460;2023-04-24T01:20:52;63.29;59.57;67.48;;
73206;Laerm;61415;55.702;37.460;2023-04-24T01:21:23;61.56;57.84;64.99;;
73206;Laerm;61415;55.702;37.460;2023-04-24T01:21:58;59.22;54.37;63.39;;
73206;Laerm;61415;55.702;37.460;2023-04-24T01:22:29;60.01;55.15;65.05;;
73206;Laerm;61415;55.702;37.460;2023-04-24T01:23:00;59.50;55.17;64.57;;
73206;Laerm;61415;55.702;37.460;2023-04-24T01:23:30;59.79;55.64;62.96;;
73206;Laerm;61415;55.702;37.460;2023-04-24T01:24:01;61.72;56.31;66.97;;
73206;Laerm;61415;55.702;37.460;2023-04-24T01:24:32;60.96;57.58;64.10;;
73206;Laerm;61415;55.702;37.460;2023-04-24T01:25:03;60.83;56.90;65.59;;
73206;Laerm;61415;55.702;37.460;2023-04-24T01:25:35;61.44;56.82;65.31;;
73206;Laerm;61415;55.702;37.460;2023-04-24T01:26:06;60.78;56.33;65.32;;
73206;Laerm;61415;55.702;37.460;2023-04-24T01:26:37;59.97;56.95;63.36;;
73206;Laerm;61415;55.702;37.460;2023-04-24T01:27:08;60.20;57.45;63.40;;
73206;Laerm;61415;55.702;37.460;2023-04-24T01:27:39;60.37;55.60;64.55;;
73206;Laerm;61415;55.702;37.460;2023-04-24T01:28:10;58.92;56.32;62.07;;
73206;Laerm;61415;55.702;37.460;2023-04-24T01:28:41;62.83;57.41;66.04;;
73206;Laerm;61415;55.702;37.460;2023-04-24T01:29:12;62.40;58.69;66.54;;
73206;Laerm;61415;55.702;37.460;2023-04-24T01:29:43;60.91;57.25;65.69;;
73206;Laerm;61415;55.702;37.460;2023-04-24T01:30:14;63.00;58.79;65.71;;
73206;Laerm;61415;55.702;37.460;2023-04-24T01:30:44;62.57;58.93;69.26;;
73206;Laerm;61415;55.702;37.460;2023-04-24T01:31:15;66.60;61.66;71.82;;
73206;Laerm;61415;55.702;37.460;2023-04-24T01:31:46;61.53;58.74;64.83;;
73206;Laerm;61415;55.702;37.460;2023-04-24T01:32:17;60.12;56.32;66.28;;
73206;Laerm;61415;55.702;37.460;2023-04-24T01:32:49;60.83;56.87;72.43;;
73206;Laerm;61415;55.702;37.460;2023-04-24T01:33:20;61.81;57.80;65.69;;
73206;Laerm;61415;55.702;37.460;2023-04-24T01:33:51;58.45;54.38;66.64;;
73206;Laerm;61415;55.702;37.460;2023-04-24T01:34:23;57.99;55.25;62.76;;
73206;Laerm;61415;55.702;37.460;2023-04-24T01:34:53;58.84;55.70;64.39;;
73206;Laerm;61415;55.702;37.460;2023-04-24T01:35:25;62.55;59.25;65.98;;
73206;Laerm;61415;55.702;37.460;2023-04-24T01:35:56;62.38;58.01;68.54;;
73206;Laerm;61415;55.702;37.460;2023-04-24T01:36:28;61.79;57.23;65.59;;
73206;Laerm;61415;55.702;37.460;2023-04-24T01:36:59;62.40;59.32;66.37;;
73206;Laerm;61415;55.702;37.460;2023-04-24T01:37:30;60.13;55.82;64.21;;
73206;Laerm;61415;55.702;37.460;2023-04-24T01:38:03;58.94;55.75;61.82;;
73206;Laerm;61415;55.702;37.460;2023-04-24T01:38:33;62.92;57.58;68.83;;
73206;Laerm;61415;55.702;37.460;2023-04-24T01:39:05;63.85;59.89;68.11;;
73206;Laerm;61415;55.702;37.460;2023-04-24T01:39:35;62.06;57.66;65.51;;
73206;Laerm;61415;55.702;37.460;2023-04-24T01:40:06;62.38;57.17;68.54;;
73206;Laerm;61415;55.702;37.460;2023-04-24T01:40:37;65.76;57.97;71.37;;
73206;Laerm;61415;55.702;37.460;2023-04-24T01:41:08;63.40;58.46;68.43;;
73206;Laerm;61415;55.702;37.460;2023-04-24T01:41:39;64.53;59.44;68.73;;
73206;Laerm;61415;55.702;37.460;2023-04-24T01:42:10;61.55;58.48;63.77;;
73206;Laerm;61415;55.702;37.460;2023-04-24T01:42:42;63.15;60.40;67.81;;
73206;Laerm;61415;55.702;37.460;2023-04-24T01:43:13;66.02;60.80;69.92;;
73206;Laerm;61415;55.702;37.460;2023-04-24T01:43:44;63.09;59.34;68.07;;
73206;Laerm;61415;55.702;37.460;2023-04-24T01:44:15;62.96;58.96;67.38;;
73206;Laerm;61415;55.702;37.460;2023-04-24T01:44:46;62.16;59.33;66.14;;
73206;Laerm;61415;55.702;37.460;2023-04-24T01:45:17;62.25;58.57;65.85;;
73206;Laerm;61415;55.702;37.460;2023-04-24T01:45:48;58.82;55.18;63.40;;
73206;Laerm;61415;55.702;37.460;2023-04-24T01:46:19;62.54;57.50;67.03;;
73206;Laerm;61415;55.702;37.460;2023-04-24T01:46:50;64.75;61.55;68.96;;
73206;Laerm;61415;55.702;37.460;2023-04-24T01:47:21;62.18;58.74;64.84;;
73206;Laerm;61415;55.702;37.460;2023-04-24T01:47:51;65.19;60.31;70.53;;
73206;Laerm;61415;55.702;37.460;2023-04-24T01:48:22;62.35;58.85;66.01;;
73206;Laerm;61415;55.702;37.460;2023-04-24T01:48:53;62.12;57.17;66.60;;
73206;Laerm;61415;55.702;37.460;2023-04-24T01:49:24;65.51;59.93;68.70;;
73206;Laerm;61415;55.702;37.460;2023-04-24T01:49:55;61.70;58.97;70.02;;
73206;Laerm;61415;55.702;37.460;2023-04-24T01:50:25;61.04;58.05;64.47;;
73206;Laerm;61415;55.702;37.460;2023-04-24T01:50:56;66.52;58.49;75.35;;
73206;Laerm;61415;55.702;37.460;2023-04-24T01:51:27;66.82;61.85;70.80;;
73206;Laerm;61415;55.702;37.460;2023-04-24T01:51:58;64.52;61.26;69.24;;
73206;Laerm;61415;55.702;37.460;2023-04-24T01:52:28;64.68;58.78;68.32;;
73206;Laerm;61415;55.702;37.460;2023-04-24T01:53:01;62.51;58.68;66.01;;
73206;Laerm;61415;55.702;37.460;2023-04-24T01:53:32;60.98;57.44;64.10;;
73206;Laerm;61415;55.702;37.460;2023-04-24T01:54:03;64.36;60.87;66.92;;
73206;Laerm;61415;55.702;37.460;2023-04-24T01:54:34;64.72;59.84;68.53;;
73206;Laerm;61415;55.702;37.460;2023-04-24T01:55:05;59.01;56.07;61.89;;
73206;Laerm;61415;55.702;37.460;2023-04-24T01:55:36;63.85;57.65;71.24;;
73206;Laerm;61415;55.702;37.460;2023-04-24T01:56:07;62.23;58.66;67.96;;
73206;Laerm;61415;55.702;37.460;2023-04-24T01:56:40;64.51;60.69;69.87;;
73206;Laerm;61415;55.702;37.460;2023-04-24T01:57:11;63.88;57.71;68.94;;
73206;Laerm;61415;55.702;37.460;2023-04-24T01:57:42;63.29;59.16;67.73;;
73206;Laerm;61415;55.702;37.460;2023-04-24T01:58:13;64.61;61.55;67.66;;
73206;Laerm;61415;55.702;37.460;2023-04-24T01:58:44;61.40;57.71;66.55;;
73206;Laerm;61415;55.702;37.460;2023-04-24T01:59:15;62.13;58.14;65.69;;
73206;Laerm;61415;55.702;37.460;2023-04-24T01:59:47;63.94;58.04;67.41;;
73206;Laerm;61415;55.702;37.460;2023-04-24T02:00:18;62.67;57.47;65.91;;
73206;Laerm;61415;55.702;37.460;2023-04-24T02:00:49;58.18;55.35;64.65;;
73206;Laerm;61415;55.702;37.460;2023-04-24T02:01:19;61.05;55.12;65.86;;
73206;Laerm;61415;55.702;37.460;2023-04-24T02:01:50;62.61;58.87;67.89;;
73206;Laerm;61415;55.702;37.460;2023-04-24T02:02:21;63.10;59.58;66.66;;
73206;Laerm;61415;55.702;37.460;2023-04-24T02:02:54;60.93;56.08;66.03;;
73206;Laerm;61415;55.702;37.460;2023-04-24T02:03:25;65.60;59.18;70.48;;
73206;Laerm;61415;55.702;37.460;2023-04-24T02:03:56;63.03;58.99;67.67;;
73206;Laerm;61415;55.702;37.460;2023-04-24T02:04:27;61.68;57.32;65.22;;
73206;Laerm;61415;55.702;37.460;2023-04-24T02:04:58;62.62;57.61;66.87;;
73206;Laerm;61415;55.702;37.460;2023-04-24T02:05:28;61.08;55.64;66.67;;
73206;Laerm;61415;55.702;37.460;2023-04-24T02:05:59;59.85;55.81;63.45;;
73206;Laerm;61415;55.702;37.460;2023-04-24T02:06:30;62.47;59.05;66.45;;
73206;Laerm;61415;55.702;37.460;2023-04-24T02:07:01;65.65;62.28;69.35;;
73206;Laerm;61415;55.702;37.460;2023-04-24T02:07:32;64.49;59.44;68.35;;
73206;Laerm;61415;55.702;37.460;2023-04-24T02:08:03;61.96;57.88;65.31;;
73206;Laerm;61415;55.702;37.460;2023-04-24T02:08:34;66.22;60.96;71.83;;
73206;Laerm;61415;55.702;37.460;2023-04-24T02:09:04;62.78;57.85;69.53;;
73206;Laerm;61415;55.702;37.460;2023-04-24T02:09:35;63.49;58.97;67.70;;
73206;Laerm;61415;55.702;37.460;2023-04-24T02:10:06;62.25;57.79;67.24;;
73206;Laerm;61415;55.702;37.460;2023-04-24T02:10:37;66.15;61.96;69.56;;
73206;Laerm;61415;55.702;37.460;2023-04-24T02:11:08;63.88;59.79;67.86;;
73206;Laerm;61415;55.702;37.460;2023-04-24T02:11:39;64.43;59.41;71.16;;
73206;Laerm;61415;55.702;37.460;2023-04-24T02:12:10;66.91;61.38;71.08;;
73206;Laerm;61415;55.702;37.460;2023-04-24T02:12:41;64.09;59.14;68.80;;
73206;Laerm;61415;55.702;37.460;2023-04-24T02:13:12;61.13;58.09;65.61;;
73206;Laerm;61415;55.702;37.460;2023-04-24T02:13:43;63.33;59.27;67.28;;
73206;Laerm;61415;55.702;37.460;2023-04-24T02:14:13;62.49;58.34;66.69;;
73206;Laerm;61415;55.702;37.460;2023-04-24T02:14:44;63.49;58.56;66.99;;
73206;Laerm;61415;55.702;37.460;2023-04-24T02:15:15;64.18;59.08;67.88;;
73206;Laerm;61415;55.702;37.460;2023-04-24T02:15:46;65.17;60.72;68.25;;
73206;Laerm;61415;55.702;37.460;2023-04-24T02:16:17;65.19;60.54;68.82;;
73206;Laerm;61415;55.702;37.460;2023-04-24T02:16:48;61.81;58.43;67.01;;
73206;Laerm;61415;55.702;37.460;2023-04-24T02:17:19;64.71;61.25;68.16;;
73206;Laerm;61415;55.702;37.460;2023-04-24T02:17:49;63.06;59.35;67.07;;
73206;Laerm;61415;55.702;37.460;2023-04-24T02:18:20;63.80;60.20;69.08;;
73206;Laerm;61415;55.702;37.460;2023-04-24T02:18:53;63.41;58.61;67.19;;
73206;Laerm;61415;55.702;37.460;2023-04-24T02:19:23;66.50;58.26;72.08;;
73206;Laerm;61415;55.702;37.460;2023-04-24T02:19:54;66.86;63.14;70.55;;
73206;Laerm;61415;55.702;37.460;2023-04-24T02:20:25;62.20;58.11;66.40;;
73206;Laerm;61415;55.702;37.460;2023-04-24T02:20:56;65.48;59.26;70.22;;
73206;Laerm;61415;55.702;37.460;2023-04-24T02:21:27;67.86;62.59;72.70;;
73206;Laerm;61415;55.702;37.460;2023-04-24T02:21:58;69.32;63.85;74.28;;
73206;Laerm;61415;55.702;37.460;2023-04-24T02:22:29;67.00;61.94;70.90;;
73206;Laerm;61415;55.702;37.460;2023-04-24T02:23:00;64.74;59.93;68.71;;
73206;Laerm;61415;55.702;37.460;2023-04-24T02:23:31;63.72;60.12;71.79;;
73206;Laerm;61415;55.702;37.460;2023-04-24T02:24:01;64.50;61.56;67.97;;
73206;Laerm;61415;55.702;37.460;2023-04-24T02:24:32;66.08;59.07;70.82;;
73206;Laerm;61415;55.702;37.460;2023-04-24T02:25:03;61.54;58.48;64.60;;
73206;Laerm;61415;55.702;37.460;2023-04-24T02:25:34;65.67;60.29;73.04;;
73206;Laerm;61415;55.702;37.460;2023-04-24T02:26:05;63.84;60.94;67.45;;
73206;Laerm;61415;55.702;37.460;2023-04-24T02:26:36;67.18;59.97;73.78;;
73206;Laerm;61415;55.702;37.460;2023-04-24T02:27:06;65.95;60.67;69.38;;
73206;Laerm;61415;55.702;37.460;2023-04-24T02:27:37;62.32;58.70;66.23;;
73206;Laerm;61415;55.702;37.460;2023-04-24T02:28:08;63.32;58.44;67.19;;
73206;Laerm;61415;55.702;37.460;2023-04-24T02:28:39;62.77;59.18;66.75;;
73206;Laerm;61415;55.702;37.460;2023-04-24T02:29:10;65.03;60.13;70.31;;
73206;Laerm;61415;55.702;37.460;2023-04-24T02:29:41;67.39;61.58;71.66;;
73206;Laerm;61415;55.702;37.460;2023-04-24T02:30:11;62.33;57.44;66.18;;
73206;Laerm;61415;55.702;37.460;2023-04-24T02:30:42;61.64;57.96;64.79;;
73206;Laerm;61415;55.702;37.460;2023-04-24T02:31:13;62.33;59.31;67.39;;
73206;Laerm;61415;55.702;37.460;2023-04-24T02:31:44;63.71;59.52;67.14;;
73206;Laerm;61415;55.702;37.460;2023-04-24T02:32:14;62.87;59.04;68.26;;
73206;Laerm;61415;55.702;37.460;2023-04-24T02:32:46;62.29;59.16;65.09;;
73206;Laerm;61415;55.702;37.460;2023-04-24T02:33:16;67.95;61.84;74.18;;
73206;Laerm;61415;55.702;37.460;2023-04-24T02:33:47;65.41;62.14;68.96;;
73206;Laerm;61415;55.702;37.460;2023-04-24T02:34:18;67.80;64.21;72.07;;
73206;Laerm;61415;55.702;37.460;2023-04-24T02:34:49;67.80;63.21;74.46;;
73206;Laerm;61415;55.702;37.460;2023-04-24T02:35:19;65.19;61.04;70.50;;
73206;Laerm;61415;55.702;37.460;2023-04-24T02:35:50;65.19;61.05;69.39;;
73206;Laerm;61415;55.702;37.460;2023-04-24T02:36:21;66.62;59.68;72.25;;
73206;Laerm;61415;55.702;37.460;2023-04-24T02:36:52;65.20;59.65;71.51;;
73206;Laerm;61415;55.702;37.460;2023-04-24T02:37:24;62.46;58.72;66.15;;
73206;Laerm;61415;55.702;37.460;2023-04-24T02:37:55;64.50;61.01;67.14;;
73206;Laerm;61415;55.702;37.460;2023-04-24T02:38:26;67.95;63.29;70.75;;
73206;Laerm;61415;55.702;37.460;2023-04-24T02:38:56;65.90;61.36;70.27;;
73206;Laerm;61415;55.702;37.460;2023-04-24T02:39:27;63.84;61.16;67.04;;
73206;Laerm;61415;55.702;37.460;2023-04-24T02:39:58;64.60;61.43;67.62;;
73206;Laerm;61415;55.702;37.460;2023-04-24T02:40:29;69.59;62.14;82.06;;
73206;Laerm;61415;55.702;37.460;2023-04-24T02:41:00;65.96;61.97;69.27;;
73206;Laerm;61415;55.702;37.460;2023-04-24T02:41:32;67.07;62.21;72.70;;
73206;Laerm;61415;55.702;37.460;2023-04-24T02:42:03;66.33;60.17;75.61;;
73206;Laerm;61415;55.702;37.460;2023-04-24T02:42:34;66.71;61.60;70.66;;
73206;Laerm;61415;55.702;37.460;2023-04-24T02:43:05;67.35;63.11;70.91;;
73206;Laerm;61415;55.702;37.460;2023-04-24T02:43:35;65.64;62.64;68.37;;
73206;Laerm;61415;55.702;37.460;2023-04-24T02:44:06;64.46;60.99;69.63;;
73206;Laerm;61415;55.702;37.460;2023-04-24T02:44:37;64.86;60.60;69.09;;
73206;Laerm;61415;55.702;37.460;2023-04-24T02:45:08;71.12;65.36;76.79;;
73206;Laerm;61415;55.702;37.460;2023-04-24T02:45:39;69.13;63.72;74.54;;
73206;Laerm;61415;55.702;37.460;2023-04-24T02:46:09;67.38;63.01;72.77;;
73206;Laerm;61415;55.702;37.460;2023-04-24T02:46:40;66.83;62.44;72.51;;
73206;Laerm;61415;55.702;37.460;2023-04-24T02:47:12;66.97;63.61;70.23;;
73206;Laerm;61415;55.702;37.460;2023-04-24T02:47:43;66.08;62.04;71.50;;
73206;Laerm;61415;55.702;37.460;2023-04-24T02:48:13;67.34;63.97;71.20;;
73206;Laerm;61415;55.702;37.460;2023-04-24T02:48:44;65.82;62.51;69.66;;
73206;Laerm;61415;55.702;37.460;2023-04-24T02:49:15;67.26;63.35;71.65;;
73206;Laerm;61415;55.702;37.460;2023-04-24T02:49:46;68.88;65.64;72.44;;
73206;Laerm;61415;55.702;37.460;2023-04-24T02:50:17;67.03;62.97;71.58;;
73206;Laerm;61415;55.702;37.460;2023-04-24T02:50:48;66.24;62.87;69.26;;
73206;Laerm;61415;55.702;37.460;2023-04-24T02:51:18;64.76;60.76;68.52;;